createdAt,value
2022-12-04T00:02:33.482Z,10.98
2022-12-04T00:05:34.974Z,10.10
2022-12-04T00:08:36.843Z,9.85
2022-12-04T00:11:38.467Z,10.13
2022-12-04T00:15:00.776Z,10.68
2022-12-04T00:18:01.369Z,10.48
2022-12-04T00:21:05.483Z,10.07
2022-12-04T00:24:07.133Z,10.02
2022-12-04T00:27:08.566Z,11.18
2022-12-04T00:30:10.690Z,9.07
2022-12-04T00:33:13.170Z,9.60
2022-12-04T00:36:17.730Z,10.32
2022-12-04T00:39:19.198Z,10.48
2022-12-04T00:42:20.702Z,8.93
2022-12-04T00:45:22.171Z,9.65
2022-12-04T00:48:23.701Z,10.70
2022-12-04T00:51:25.676Z,9.98
2022-12-04T00:54:27.168Z,11.30
2022-12-04T00:57:28.644Z,10.95
2022-12-04T01:00:30.596Z,9.98
2022-12-04T01:03:32.171Z,9.90
2022-12-04T01:06:34.688Z,9.07
2022-12-04T01:09:36.145Z,8.90
2022-12-04T01:12:37.671Z,9.73
2022-12-04T01:15:41.101Z,10.15
2022-12-04T01:18:42.540Z,8.75
2022-12-04T01:21:44.031Z,9.20
2022-12-04T01:24:45.524Z,9.43
2022-12-04T01:27:46.964Z,10.27
2022-12-04T01:31:05.725Z,9.65
2022-12-04T01:34:07.183Z,9.45
2022-12-04T01:37:08.897Z,9.90
2022-12-04T01:40:14.231Z,10.50
2022-12-04T01:43:16.496Z,10.43
2022-12-04T01:46:18.019Z,10.27
2022-12-04T01:49:24.868Z,9.98
2022-12-04T01:52:26.713Z,8.73
2022-12-04T01:55:29.803Z,8.88
2022-12-04T01:58:36.455Z,9.85
2022-12-04T02:01:51.026Z,9.57
2022-12-04T02:04:53.291Z,9.85
2022-12-04T02:07:59.118Z,10.13
2022-12-04T02:11:10.703Z,8.57
2022-12-04T02:14:15.107Z,9.68
2022-12-04T02:17:19.534Z,9.68
2022-12-04T02:20:20.926Z,10.20
2022-12-04T02:23:44.266Z,8.73
2022-12-04T02:26:57.995Z,8.98
2022-12-04T02:30:06.145Z,9.57
2022-12-04T02:33:17.807Z,12.20
2022-12-04T02:36:23.648Z,9.23
2022-12-04T02:39:41.298Z,9.38
2022-12-04T02:42:47.908Z,9.02
2022-12-04T02:46:22.230Z,9.48
2022-12-04T02:49:32.313Z,8.70
2022-12-04T02:52:39.055Z,9.85
2022-12-04T02:56:01.142Z,9.00
2022-12-04T02:59:07.785Z,9.48
2022-12-04T03:02:15.921Z,9.10
2022-12-04T03:05:22.916Z,10.55
2022-12-04T03:08:34.496Z,9.35
2022-12-04T03:11:38.908Z,9.68
2022-12-04T03:14:58.086Z,9.13
2022-12-04T03:18:14.720Z,8.82
2022-12-04T03:21:19.754Z,9.90
2022-12-04T03:24:29.134Z,8.45
2022-12-04T03:27:45.937Z,10.02
2022-12-04T03:30:57.234Z,8.85
2022-12-04T03:34:05.505Z,8.77
2022-12-04T03:37:17.566Z,8.73
2022-12-04T03:40:29.067Z,9.55
2022-12-04T03:43:39.494Z,9.95
2022-12-04T03:46:41.043Z,9.32
2022-12-04T03:49:42.528Z,9.70
2022-12-04T03:53:18.456Z,9.25
2022-12-04T03:56:24.683Z,9.15
2022-12-04T03:59:30.185Z,10.57
2022-12-04T04:02:36.571Z,8.17
2022-12-04T04:08:48.655Z,8.05
2022-12-04T04:12:25.561Z,8.77
2022-12-04T04:15:45.895Z,8.90
2022-12-04T04:19:09.908Z,8.77
2022-12-04T04:22:30.557Z,9.10
2022-12-04T04:25:33.802Z,7.97
2022-12-04T04:28:40.202Z,8.13
2022-12-04T04:32:00.214Z,8.05
2022-12-04T04:35:04.760Z,8.48
2022-12-04T04:38:17.450Z,9.38
2022-12-04T04:41:50.542Z,8.40
2022-12-04T04:45:10.768Z,8.50
2022-12-04T04:48:16.913Z,10.05
2022-12-04T04:51:20.310Z,9.13
2022-12-04T04:54:22.502Z,8.85
2022-12-04T04:57:33.871Z,8.45
2022-12-04T05:00:36.486Z,9.88
2022-12-04T05:03:38.523Z,9.95
2022-12-04T05:06:40.016Z,8.93
2022-12-04T05:09:41.658Z,9.38
2022-12-04T05:12:43.193Z,8.57
2022-12-04T05:15:44.793Z,8.45
2022-12-04T05:19:05.147Z,7.80
2022-12-04T05:22:06.743Z,8.68
2022-12-04T05:25:08.552Z,8.57
2022-12-04T05:28:10.247Z,8.88
2022-12-04T05:31:11.784Z,8.02
2022-12-04T05:34:13.291Z,7.95
2022-12-04T05:37:14.773Z,8.85
2022-12-04T05:40:16.528Z,7.70
2022-12-04T05:43:18.913Z,8.45
2022-12-04T05:46:20.745Z,7.35
2022-12-04T05:49:22.262Z,8.75
2022-12-04T05:52:23.827Z,7.65
2022-12-04T05:55:25.352Z,8.20
2022-12-04T05:58:28.078Z,7.63
2022-12-04T06:01:29.506Z,9.98
2022-12-04T06:04:31.022Z,7.70
2022-12-04T06:07:32.581Z,9.07
2022-12-04T06:10:34.098Z,8.82
2022-12-04T06:13:35.547Z,8.43
2022-12-04T06:16:40.158Z,8.00
2022-12-04T06:19:41.714Z,7.97
2022-12-04T06:22:43.239Z,7.70
2022-12-04T06:25:44.712Z,10.20
2022-12-04T06:28:46.216Z,9.45
2022-12-04T06:31:47.771Z,8.98
2022-12-04T06:34:53.968Z,9.48
2022-12-04T06:37:55.461Z,8.90
2022-12-04T06:40:57.082Z,8.45
2022-12-04T06:43:58.895Z,9.60
2022-12-04T06:47:01.116Z,8.60
2022-12-04T06:50:03.816Z,10.20
2022-12-04T06:53:08.450Z,8.80
2022-12-04T06:56:17.734Z,8.40
2022-12-04T06:59:19.259Z,8.57
2022-12-04T07:02:20.809Z,7.90
2022-12-04T07:05:22.391Z,8.27
2022-12-04T07:08:24.508Z,8.98
2022-12-04T07:11:26.120Z,8.82
2022-12-04T07:14:27.640Z,8.73
2022-12-04T07:17:29.113Z,10.25
2022-12-04T07:20:31.238Z,9.25
2022-12-04T07:23:33.064Z,7.22
2022-12-04T07:26:34.590Z,9.85
2022-12-04T07:29:36.081Z,8.70
2022-12-04T07:32:37.980Z,9.45
2022-12-04T07:35:39.475Z,9.55
2022-12-04T07:38:41.881Z,8.38
2022-12-04T07:41:43.353Z,8.57
2022-12-04T07:44:45.094Z,8.43
2022-12-04T07:47:46.591Z,7.53
2022-12-04T07:50:48.243Z,9.20
2022-12-04T07:53:51.101Z,8.88
2022-12-04T07:56:52.690Z,8.10
2022-12-04T07:59:54.480Z,9.15
2022-12-04T08:02:56.264Z,8.38
2022-12-04T08:06:05.660Z,8.45
2022-12-04T08:09:10.072Z,8.90
2022-12-04T08:12:11.985Z,7.90
2022-12-04T08:15:13.517Z,8.30
2022-12-04T08:18:15.205Z,8.68
2022-12-04T08:21:20.749Z,7.22
2022-12-04T08:24:22.311Z,8.63
2022-12-04T08:27:23.808Z,10.30
2022-12-04T08:30:25.266Z,7.65
2022-12-04T08:33:26.724Z,8.55
2022-12-04T08:36:28.617Z,10.20
2022-12-04T08:39:30.191Z,10.90
2022-12-04T08:42:31.681Z,9.85
2022-12-04T08:45:33.127Z,8.10
2022-12-04T08:48:34.905Z,8.57
2022-12-04T08:51:36.676Z,9.13
2022-12-04T08:54:38.163Z,10.35
2022-12-04T08:57:39.658Z,9.18
2022-12-04T09:00:41.192Z,9.00
2022-12-04T09:03:43.154Z,11.75
2022-12-04T09:06:44.665Z,10.95
2022-12-04T09:09:48.463Z,9.85
2022-12-04T09:12:50.287Z,10.10
2022-12-04T09:15:51.889Z,11.90
2022-12-04T09:18:54.170Z,11.32
2022-12-04T09:21:55.628Z,10.68
2022-12-04T09:24:57.133Z,11.82
2022-12-04T09:27:58.646Z,10.52
2022-12-04T09:31:05.107Z,12.63
2022-12-04T09:37:08.122Z,8.70
2022-12-04T09:40:25.768Z,11.32
2022-12-04T09:43:43.816Z,11.23
2022-12-04T09:47:00.533Z,11.88
2022-12-04T09:50:13.917Z,11.52
2022-12-04T09:53:20.933Z,11.93
2022-12-04T09:56:27.656Z,10.88
2022-12-04T09:59:31.921Z,10.75
2022-12-04T10:02:42.490Z,11.85
2022-12-04T10:06:14.771Z,11.68
2022-12-04T10:09:36.444Z,12.20
2022-12-04T10:13:08.882Z,12.02
2022-12-04T10:16:25.513Z,12.95
2022-12-04T10:19:41.885Z,14.35
2022-12-04T10:23:07.084Z,11.93
2022-12-04T10:26:17.571Z,11.00
2022-12-04T10:29:30.742Z,13.02
2022-12-04T10:32:34.239Z,14.07
2022-12-04T10:35:37.857Z,10.05
2022-12-04T10:38:59.774Z,11.95
2022-12-04T10:42:06.373Z,10.93
2022-12-04T10:45:10.227Z,10.80
2022-12-04T10:48:22.333Z,10.75
2022-12-04T10:51:23.973Z,13.35
2022-12-04T10:54:45.043Z,9.73
2022-12-04T10:57:46.986Z,10.48
2022-12-04T11:01:07.011Z,10.80
2022-12-04T11:04:20.009Z,11.10
2022-12-04T11:07:31.897Z,9.70
2022-12-04T11:10:44.525Z,11.93
2022-12-04T11:13:46.025Z,9.48
2022-12-04T11:16:59.210Z,13.52
2022-12-04T11:20:18.909Z,13.65
2022-12-04T11:23:21.050Z,10.05
2022-12-04T11:26:37.786Z,11.48
2022-12-04T11:29:44.730Z,11.45
2022-12-04T11:32:47.219Z,11.52
2022-12-04T11:35:55.544Z,12.45
2022-12-04T11:39:29.681Z,13.40
2022-12-04T11:42:31.777Z,11.32
2022-12-04T11:45:33.807Z,10.80
2022-12-04T11:48:44.928Z,9.77
2022-12-04T11:52:14.391Z,13.80
2022-12-04T11:55:22.475Z,12.98
2022-12-04T11:59:25.347Z,11.13
2022-12-04T12:02:44.110Z,11.70
2022-12-04T12:05:57.552Z,12.63
2022-12-04T12:09:02.330Z,11.90
2022-12-04T12:12:15.978Z,12.88
2022-12-04T12:15:31.217Z,11.30
2022-12-04T12:19:00.112Z,9.45
2022-12-04T12:22:10.739Z,10.30
2022-12-04T12:25:36.554Z,11.50
2022-12-04T12:28:41.103Z,9.82
2022-12-04T12:32:08.748Z,11.43
2022-12-04T12:35:24.827Z,12.10
2022-12-04T12:38:31.144Z,12.90
2022-12-04T12:44:58.915Z,12.27
2022-12-04T12:48:07.607Z,10.85
2022-12-04T12:51:36.069Z,10.15
2022-12-04T12:54:43.779Z,9.73
2022-12-04T12:57:58.598Z,11.40
2022-12-04T13:01:03.609Z,10.43
2022-12-04T13:04:05.134Z,12.27
2022-12-04T13:07:18.923Z,11.38
2022-12-04T13:10:35.230Z,14.15
2022-12-04T13:13:44.384Z,11.30
2022-12-04T13:16:51.972Z,10.02
2022-12-04T13:19:58.180Z,10.75
2022-12-04T13:23:17.998Z,9.98
2022-12-04T13:26:51.116Z,10.02
2022-12-04T13:30:10.256Z,10.20
2022-12-04T13:33:34.820Z,10.02
2022-12-04T13:36:58.100Z,9.45
2022-12-04T13:40:02.531Z,11.93
2022-12-04T13:43:16.130Z,11.60
2022-12-04T13:46:23.656Z,12.18
2022-12-04T13:49:29.216Z,12.95
2022-12-04T13:52:42.189Z,10.68
2022-12-04T13:55:43.693Z,12.43
2022-12-04T13:58:45.221Z,11.30
2022-12-04T14:01:49.746Z,9.02
2022-12-04T14:05:29.002Z,9.40
2022-12-04T14:08:37.911Z,10.27
2022-12-04T14:11:48.126Z,10.43
2022-12-04T14:14:55.593Z,10.82
2022-12-04T14:18:02.796Z,12.45
2022-12-04T14:21:06.005Z,10.95
2022-12-04T14:24:35.047Z,9.57
2022-12-04T14:27:45.680Z,12.63
2022-12-04T14:31:08.542Z,11.18
2022-12-04T14:34:23.851Z,9.23
2022-12-04T14:37:37.652Z,10.43
2022-12-04T14:40:45.373Z,9.85
2022-12-04T14:43:49.851Z,8.93
2022-12-04T14:46:54.943Z,9.05
2022-12-04T14:50:44.033Z,9.57
2022-12-04T14:54:15.114Z,12.07
2022-12-04T14:57:43.212Z,9.77
2022-12-04T15:00:51.111Z,9.95
2022-12-04T15:03:59.043Z,11.15
2022-12-04T15:07:01.090Z,11.25
2022-12-04T15:10:35.689Z,9.35
2022-12-04T15:13:38.679Z,12.40
2022-12-04T15:16:40.528Z,13.98
2022-12-04T15:19:42.350Z,11.38
2022-12-04T15:22:44.514Z,12.20
2022-12-04T15:25:57.859Z,9.77
2022-12-04T15:29:02.997Z,10.32
2022-12-04T15:32:11.863Z,9.45
2022-12-04T15:35:22.575Z,9.13
2022-12-04T15:38:24.264Z,9.70
2022-12-04T15:41:35.114Z,15.73
2022-12-04T15:44:36.623Z,21.45
2022-12-04T15:47:51.569Z,26.95
2022-12-04T15:51:02.103Z,19.55
2022-12-04T15:54:04.055Z,17.98
2022-12-04T15:57:22.361Z,17.08
2022-12-04T16:00:36.262Z,15.93
2022-12-04T16:03:44.058Z,15.10
2022-12-04T16:06:48.292Z,15.20
2022-12-04T16:10:02.604Z,15.35
2022-12-04T16:13:05.616Z,21.83
2022-12-04T16:16:11.789Z,16.65
2022-12-04T16:19:22.378Z,17.38
2022-12-04T16:22:26.206Z,16.23
2022-12-04T16:25:31.467Z,18.48
2022-12-04T16:28:32.942Z,17.90
2022-12-04T16:31:34.774Z,17.75
2022-12-04T16:34:36.270Z,18.20
2022-12-04T16:37:37.778Z,18.65
2022-12-04T16:40:39.276Z,18.70
2022-12-04T16:43:40.803Z,15.13
2022-12-04T16:46:43.095Z,21.13
2022-12-04T16:49:47.373Z,15.73
2022-12-04T16:52:48.835Z,17.63
2022-12-04T16:55:51.946Z,16.58
2022-12-04T16:58:53.423Z,16.60
2022-12-04T17:01:55.029Z,14.57
2022-12-04T17:04:58.119Z,18.15
2022-12-04T17:08:00.550Z,16.35
2022-12-04T17:11:02.087Z,15.10
2022-12-04T17:14:07.026Z,16.02
2022-12-04T17:17:08.523Z,18.90
2022-12-04T17:20:15.831Z,13.15
2022-12-04T17:23:17.403Z,13.82
2022-12-04T17:26:19.396Z,14.45
2022-12-04T17:29:20.904Z,15.52
2022-12-04T17:32:23.026Z,14.30
2022-12-04T17:35:27.013Z,15.43
2022-12-04T17:38:28.470Z,16.63
2022-12-04T17:41:30.080Z,15.30
2022-12-04T17:44:31.597Z,16.35
2022-12-04T17:47:34.862Z,18.83
2022-12-04T17:50:36.319Z,17.05
2022-12-04T17:53:37.879Z,15.13
2022-12-04T17:56:43.322Z,18.33
2022-12-04T17:59:48.507Z,18.73
2022-12-04T18:02:53.222Z,22.63
2022-12-04T18:05:55.066Z,22.58
2022-12-04T18:08:57.393Z,22.67
2022-12-04T18:12:01.395Z,25.27
2022-12-04T18:15:05.175Z,26.75
2022-12-04T18:18:06.704Z,25.25
2022-12-04T18:21:11.976Z,24.83
2022-12-04T18:24:14.214Z,25.98
2022-12-04T18:27:15.675Z,28.83
2022-12-04T18:30:17.186Z,29.10
2022-12-04T18:33:19.211Z,25.15
2022-12-04T18:36:23.809Z,27.05
2022-12-04T18:39:26.159Z,22.52
2022-12-04T18:42:27.653Z,23.00
2022-12-04T18:45:29.252Z,23.77
2022-12-04T18:48:31.339Z,27.00
2022-12-04T18:51:35.628Z,21.45
2022-12-04T18:54:37.086Z,21.98
2022-12-04T18:57:38.656Z,19.85
2022-12-04T19:00:40.150Z,20.75
2022-12-04T19:03:42.397Z,19.40
2022-12-04T19:06:50.234Z,19.98
2022-12-04T19:10:11.324Z,20.40
2022-12-04T19:13:13.118Z,19.13
2022-12-04T19:16:16.434Z,18.33
2022-12-04T19:19:18.251Z,17.33
2022-12-04T19:22:19.729Z,16.70
2022-12-04T19:25:21.211Z,18.70
2022-12-04T19:28:22.839Z,15.57
2022-12-04T19:31:31.813Z,16.02
2022-12-04T19:34:33.543Z,16.73
2022-12-04T19:37:39.694Z,14.35
2022-12-04T19:40:43.455Z,15.30
2022-12-04T19:43:50.040Z,14.05
2022-12-04T19:46:51.562Z,14.38
2022-12-04T19:49:53.040Z,13.23
2022-12-04T19:52:54.608Z,13.13
2022-12-04T19:55:56.141Z,13.25
2022-12-04T19:59:01.363Z,11.98
2022-12-04T20:02:02.919Z,13.00
2022-12-04T20:05:04.847Z,13.45
2022-12-04T20:11:11.571Z,11.25
2022-12-04T20:14:13.615Z,11.70
2022-12-04T20:17:15.579Z,13.95
2022-12-04T20:20:17.046Z,11.70
2022-12-04T20:23:18.529Z,11.75
2022-12-04T20:26:27.260Z,11.48
2022-12-04T20:29:28.715Z,12.18
2022-12-04T20:32:30.210Z,11.18
2022-12-04T20:35:31.855Z,11.70
2022-12-04T20:38:33.350Z,10.95
2022-12-04T20:41:35.319Z,11.25
2022-12-04T20:44:36.855Z,10.98
2022-12-04T20:47:39.364Z,11.52
2022-12-04T20:50:45.835Z,10.02
2022-12-04T20:56:51.928Z,10.55
2022-12-04T20:59:54.385Z,11.18
2022-12-04T21:02:56.184Z,10.40
2022-12-04T21:05:57.682Z,10.23
2022-12-04T21:09:02.054Z,10.32
2022-12-04T21:12:23.703Z,10.30
2022-12-04T21:15:43.960Z,11.23
2022-12-04T21:18:45.480Z,9.73
2022-12-04T21:21:47.674Z,9.90
2022-12-04T21:24:49.156Z,9.50
2022-12-04T21:27:51.122Z,10.00
2022-12-04T21:30:52.720Z,9.68
2022-12-04T21:33:55.959Z,9.63
2022-12-04T21:36:57.907Z,10.55
2022-12-04T21:39:59.923Z,9.50
2022-12-04T21:43:01.823Z,9.98
2022-12-04T21:46:09.383Z,9.50
2022-12-04T21:49:11.537Z,11.30
2022-12-04T21:52:15.768Z,8.35
2022-12-04T21:55:17.259Z,8.40
2022-12-04T21:58:20.327Z,10.93
2022-12-04T22:01:23.899Z,8.68
2022-12-04T22:04:25.418Z,8.88
2022-12-04T22:07:26.994Z,10.57
2022-12-04T22:10:28.548Z,9.23
2022-12-04T22:13:30.052Z,8.43
2022-12-04T22:16:33.790Z,10.27
2022-12-04T22:19:39.042Z,10.57
2022-12-04T22:22:40.559Z,9.13
2022-12-04T22:25:42.123Z,8.63
2022-12-04T22:28:43.986Z,8.45
2022-12-04T22:31:45.562Z,9.63
2022-12-04T22:34:49.002Z,7.70
2022-12-04T22:37:50.528Z,9.15
2022-12-04T22:40:51.987Z,9.13
2022-12-04T22:43:53.480Z,8.30
2022-12-04T22:46:55.034Z,9.20
2022-12-04T22:49:56.749Z,9.25
2022-12-04T22:52:58.394Z,8.88
2022-12-04T22:56:05.427Z,7.07
2022-12-04T22:59:06.895Z,7.97
2022-12-04T23:02:08.550Z,8.10
2022-12-04T23:05:10.096Z,7.82
2022-12-04T23:08:11.795Z,8.95
2022-12-04T23:11:17.382Z,8.70
2022-12-04T23:14:18.908Z,10.27
2022-12-04T23:17:20.489Z,8.60
2022-12-04T23:20:24.738Z,8.38
2022-12-04T23:23:26.259Z,8.98
2022-12-04T23:26:31.635Z,9.25
2022-12-04T23:32:54.618Z,7.75
2022-12-04T23:35:58.270Z,7.72
2022-12-04T23:39:00.130Z,8.63
2022-12-04T23:42:01.699Z,8.82
2022-12-04T23:45:04.152Z,7.68
2022-12-04T23:48:05.958Z,8.27
2022-12-04T23:51:08.751Z,8.35
2022-12-04T23:54:10.223Z,8.15
2022-12-04T23:57:12.824Z,8.68
